createdAt,value
2023-04-13T00:00:49.422Z,9.12
2023-04-13T00:03:20.241Z,9.66
2023-04-13T00:05:48.936Z,10.09
2023-04-13T00:08:17.357Z,10.47
2023-04-13T00:10:46.288Z,10.77
2023-04-13T00:13:15.196Z,10.94
2023-04-13T00:15:43.904Z,11.01
2023-04-13T00:18:14.321Z,11.10
2023-04-13T00:20:46.093Z,11.18
2023-04-13T00:23:18.090Z,11.20
2023-04-13T00:25:47.137Z,11.22
2023-04-13T00:28:16.735Z,11.31
2023-04-13T00:30:44.642Z,11.44
2023-04-13T00:33:12.535Z,11.59
2023-04-13T00:35:40.596Z,11.74
2023-04-13T00:38:08.992Z,11.86
2023-04-13T00:40:38.005Z,11.92
2023-04-13T00:43:05.861Z,11.92
2023-04-13T00:45:39.754Z,11.95
2023-04-13T00:48:11.082Z,11.95
2023-04-13T00:50:41.628Z,12.01
2023-04-13T00:53:13.794Z,12.12
2023-04-13T00:55:43.009Z,12.23
2023-04-13T00:58:13.639Z,12.35
2023-04-13T01:00:43.515Z,12.38
2023-04-13T01:03:13.136Z,12.26
2023-04-13T01:05:55.325Z,12.09
2023-04-13T01:08:48.000Z,11.98
2023-04-13T01:11:27.980Z,11.95
2023-04-13T01:14:23.488Z,11.96
2023-04-13T01:16:58.483Z,11.94
2023-04-13T01:20:00.126Z,11.99
2023-04-13T01:22:33.963Z,12.07
2023-04-13T01:25:25.980Z,12.11
2023-04-13T01:28:18.160Z,12.00
2023-04-13T01:30:47.657Z,11.91
2023-04-13T01:33:16.455Z,11.89
2023-04-13T01:35:44.822Z,11.84
2023-04-13T01:38:12.688Z,11.75
2023-04-13T01:40:44.818Z,11.73
2023-04-13T01:43:13.057Z,11.79
2023-04-13T01:45:51.857Z,11.89
2023-04-13T01:48:39.191Z,12.02
2023-04-13T01:51:24.399Z,12.15
2023-04-13T01:54:14.023Z,12.23
2023-04-13T01:56:43.157Z,12.01
2023-04-13T01:59:11.523Z,11.17
2023-04-13T02:01:41.329Z,10.34
2023-04-13T02:04:10.090Z,9.79
2023-04-13T02:06:38.196Z,10.04
2023-04-13T02:09:06.940Z,10.49
2023-04-13T02:11:37.427Z,10.82
2023-04-13T02:14:05.237Z,11.06
2023-04-13T02:16:33.132Z,11.26
2023-04-13T02:19:01.789Z,11.42
2023-04-13T02:21:29.603Z,11.57
2023-04-13T02:23:57.737Z,11.68
2023-04-13T02:26:26.350Z,11.82
2023-04-13T02:28:54.160Z,11.92
2023-04-13T02:31:23.624Z,12.00
2023-04-13T02:33:51.941Z,12.11
2023-04-13T02:36:20.379Z,12.17
2023-04-13T02:38:48.533Z,12.20
2023-04-13T02:41:16.553Z,12.20
2023-04-13T02:43:44.370Z,12.20
2023-04-13T02:46:12.284Z,12.12
2023-04-13T02:48:40.179Z,11.97
2023-04-13T02:51:08.152Z,11.89
2023-04-13T02:53:36.347Z,11.86
2023-04-13T02:56:05.772Z,11.83
2023-04-13T02:58:33.570Z,11.78
2023-04-13T03:01:01.398Z,11.79
2023-04-13T03:03:30.601Z,11.81
2023-04-13T03:05:58.966Z,11.87
2023-04-13T03:08:27.570Z,11.99
2023-04-13T03:10:55.341Z,12.04
2023-04-13T03:13:23.120Z,11.93
2023-04-13T03:15:51.195Z,11.80
2023-04-13T03:18:19.085Z,11.76
2023-04-13T03:20:47.127Z,11.81
2023-04-13T03:23:15.006Z,11.80
2023-04-13T03:25:42.856Z,11.75
2023-04-13T03:28:10.639Z,11.71
2023-04-13T03:30:38.443Z,11.69
2023-04-13T03:33:06.178Z,11.72
2023-04-13T03:35:33.925Z,11.69
2023-04-13T03:38:01.691Z,11.47
2023-04-13T03:40:29.433Z,11.08
2023-04-13T03:42:57.212Z,10.73
2023-04-13T03:45:25.097Z,10.44
2023-04-13T03:47:52.876Z,10.17
2023-04-13T03:50:21.179Z,9.97
2023-04-13T03:52:48.954Z,9.82
2023-04-13T03:55:18.291Z,9.83
2023-04-13T03:57:46.051Z,9.77
2023-04-13T04:00:15.917Z,9.64
2023-04-13T04:02:44.061Z,9.67
2023-04-13T04:05:12.108Z,9.82
2023-04-13T04:07:39.930Z,9.91
2023-04-13T04:10:09.082Z,9.89
2023-04-13T04:12:36.904Z,9.81
2023-04-13T04:15:05.539Z,9.79
2023-04-13T04:17:33.321Z,9.80
2023-04-13T04:20:01.201Z,9.90
2023-04-13T04:22:30.431Z,10.07
2023-04-13T04:25:00.176Z,10.17
2023-04-13T04:27:28.409Z,10.22
2023-04-13T04:29:59.488Z,10.26
2023-04-13T04:32:27.356Z,10.34
2023-04-13T04:34:55.123Z,10.46
2023-04-13T04:37:23.501Z,10.55
2023-04-13T04:39:51.497Z,10.73
2023-04-13T04:42:19.238Z,10.79
2023-04-13T04:44:50.241Z,10.90
2023-04-13T04:47:19.846Z,10.99
2023-04-13T04:49:47.926Z,10.93
2023-04-13T04:52:15.948Z,10.89
2023-04-13T04:54:43.917Z,11.05
2023-04-13T04:57:12.415Z,11.32
2023-04-13T04:59:41.183Z,11.54
2023-04-13T05:02:09.203Z,11.61
2023-04-13T05:04:38.966Z,11.96
2023-04-13T05:07:07.757Z,12.42
2023-04-13T05:09:37.347Z,12.68
2023-04-13T05:12:05.558Z,12.82
2023-04-13T05:14:34.240Z,13.01
2023-04-13T05:17:02.165Z,13.54
2023-04-13T05:19:30.083Z,14.10
2023-04-13T05:22:01.169Z,14.14
2023-04-13T05:24:28.963Z,13.81
2023-04-13T05:26:57.407Z,13.17
2023-04-13T05:29:25.504Z,12.47
2023-04-13T05:31:53.331Z,11.90
2023-04-13T05:34:21.385Z,11.60
2023-04-13T05:36:50.345Z,11.76
2023-04-13T05:39:18.153Z,11.95
2023-04-13T05:41:46.093Z,11.98
2023-04-13T05:44:13.979Z,11.88
2023-04-13T05:46:41.780Z,11.89
2023-04-13T05:49:10.802Z,11.91
2023-04-13T05:51:39.460Z,11.82
2023-04-13T05:54:10.088Z,11.76
2023-04-13T05:56:37.901Z,11.86
2023-04-13T05:59:06.275Z,11.79
2023-04-13T06:01:35.125Z,11.68
2023-04-13T06:04:05.405Z,11.62
2023-04-13T06:06:36.113Z,11.56
2023-04-13T06:09:05.626Z,11.51
2023-04-13T06:11:33.497Z,11.54
2023-04-13T06:14:02.693Z,11.90
2023-04-13T06:16:30.589Z,12.34
2023-04-13T06:19:00.270Z,12.70
2023-04-13T06:21:30.268Z,12.96
2023-04-13T06:23:58.089Z,13.10
2023-04-13T06:26:26.396Z,13.17
2023-04-13T06:28:54.531Z,13.12
2023-04-13T06:31:23.495Z,13.01
2023-04-13T06:33:51.755Z,12.86
2023-04-13T06:36:19.627Z,12.77
2023-04-13T06:38:47.425Z,12.74
2023-04-13T06:41:15.644Z,13.01
2023-04-13T06:43:43.417Z,13.31
2023-04-13T06:46:12.455Z,13.64
2023-04-13T06:48:41.089Z,13.99
2023-04-13T06:51:08.869Z,14.13
2023-04-13T06:53:36.662Z,13.63
2023-04-13T06:56:04.891Z,13.16
2023-04-13T06:58:32.842Z,12.78
2023-04-13T07:01:01.118Z,12.52
2023-04-13T07:03:29.059Z,12.32
2023-04-13T07:05:56.924Z,12.31
2023-04-13T07:08:24.688Z,12.82
2023-04-13T07:10:54.512Z,13.23
2023-04-13T07:13:22.380Z,13.34
2023-04-13T07:15:50.261Z,12.99
2023-04-13T07:18:18.066Z,12.63
2023-04-13T07:20:47.517Z,12.38
2023-04-13T07:23:15.329Z,12.25
2023-04-13T07:25:43.194Z,12.41
2023-04-13T07:28:11.290Z,12.72
2023-04-13T07:30:46.271Z,13.15
2023-04-13T07:33:14.149Z,13.47
2023-04-13T07:35:41.973Z,13.62
2023-04-13T07:38:09.763Z,13.83
2023-04-13T07:40:37.614Z,13.86
2023-04-13T07:43:05.426Z,13.71
2023-04-13T07:45:33.204Z,13.54
2023-04-13T07:48:01.102Z,13.47
2023-04-13T07:50:28.983Z,13.49
2023-04-13T07:52:56.813Z,13.55
2023-04-13T07:55:24.606Z,13.62
2023-04-13T07:57:52.373Z,13.72
2023-04-13T08:00:21.475Z,13.75
2023-04-13T08:02:49.448Z,13.74
2023-04-13T08:05:17.855Z,13.78
2023-04-13T08:07:49.247Z,13.80
2023-04-13T08:10:17.063Z,13.84
2023-04-13T08:12:44.850Z,13.92
2023-04-13T08:15:12.670Z,14.10
2023-04-13T08:17:41.267Z,14.30
2023-04-13T08:20:09.646Z,14.50
2023-04-13T08:22:37.455Z,14.68
2023-04-13T08:25:07.355Z,14.79
2023-04-13T08:27:35.397Z,14.80
2023-04-13T08:30:04.140Z,14.77
2023-04-13T08:32:31.990Z,14.76
2023-04-13T08:35:00.178Z,14.87
2023-04-13T08:37:28.181Z,14.96
2023-04-13T08:39:59.779Z,15.00
2023-04-13T08:42:29.088Z,14.99
2023-04-13T08:45:01.208Z,15.03
2023-04-13T08:47:29.784Z,15.05
2023-04-13T08:49:59.922Z,15.02
2023-04-13T08:52:29.387Z,15.00
2023-04-13T08:54:58.661Z,14.99
2023-04-13T08:57:27.996Z,15.00
2023-04-13T08:59:58.555Z,15.12
2023-04-13T09:02:36.919Z,15.29
2023-04-13T09:05:16.627Z,15.48
2023-04-13T09:07:57.013Z,15.66
2023-04-13T09:10:26.822Z,15.92
2023-04-13T09:12:54.654Z,16.18
2023-04-13T09:15:23.136Z,16.36
2023-04-13T09:17:51.344Z,16.56
2023-04-13T09:20:23.951Z,16.73
2023-04-13T09:22:52.853Z,16.86
2023-04-13T09:25:28.581Z,16.93
2023-04-13T09:27:57.209Z,16.99
2023-04-13T09:30:27.531Z,17.08
2023-04-13T09:33:13.083Z,17.18
2023-04-13T09:35:40.885Z,17.37
2023-04-13T09:38:09.111Z,17.55
2023-04-13T09:40:39.147Z,17.64
2023-04-13T09:43:08.233Z,17.53
2023-04-13T09:45:38.690Z,17.43
2023-04-13T09:48:19.039Z,17.48
2023-04-13T09:50:59.589Z,17.60
2023-04-13T09:53:38.918Z,17.79
2023-04-13T09:56:07.036Z,18.01
2023-04-13T09:58:44.391Z,18.16
2023-04-13T10:01:16.843Z,18.28
2023-04-13T10:03:45.388Z,18.37
2023-04-13T10:06:13.444Z,18.42
2023-04-13T10:08:42.777Z,18.38
2023-04-13T10:11:15.389Z,18.32
2023-04-13T10:13:53.775Z,18.26
2023-04-13T10:16:40.318Z,18.19
2023-04-13T10:19:14.021Z,18.05
2023-04-13T10:21:47.724Z,17.74
2023-04-13T10:24:16.625Z,17.54
2023-04-13T10:26:45.321Z,17.50
2023-04-13T10:29:15.090Z,17.59
2023-04-13T10:31:52.395Z,17.81
2023-04-13T10:34:29.569Z,18.03
2023-04-13T10:37:06.469Z,18.18
2023-04-13T10:39:36.224Z,18.23
2023-04-13T10:42:10.433Z,18.19
2023-04-13T10:44:53.914Z,18.13
2023-04-13T10:47:22.427Z,18.19
2023-04-13T10:49:52.275Z,18.34
2023-04-13T10:52:20.040Z,18.46
2023-04-13T10:54:47.906Z,18.54
2023-04-13T10:57:16.930Z,18.48
2023-04-13T10:59:58.780Z,18.42
2023-04-13T11:02:32.883Z,18.40
2023-04-13T11:05:01.551Z,18.42
2023-04-13T11:07:29.866Z,18.47
2023-04-13T11:10:04.021Z,18.61
2023-04-13T11:12:32.064Z,18.75
2023-04-13T11:15:01.193Z,18.82
2023-04-13T11:17:29.262Z,18.95
2023-04-13T11:19:58.758Z,19.01
2023-04-13T11:22:28.944Z,18.96
2023-04-13T11:25:09.082Z,19.02
2023-04-13T11:27:38.137Z,19.13
2023-04-13T11:30:09.681Z,19.20
2023-04-13T11:32:43.479Z,19.27
2023-04-13T11:35:15.112Z,19.38
2023-04-13T11:37:48.867Z,19.49
2023-04-13T11:40:21.889Z,19.57
2023-04-13T11:42:58.935Z,19.56
2023-04-13T11:45:30.077Z,19.58
2023-04-13T11:47:58.823Z,19.59
2023-04-13T11:50:28.085Z,19.51
2023-04-13T11:52:56.956Z,19.37
2023-04-13T11:55:26.936Z,19.34
2023-04-13T11:57:55.527Z,19.40
2023-04-13T12:00:26.827Z,19.42
2023-04-13T12:05:32.508Z,19.57
2023-04-13T12:08:04.129Z,19.61
2023-04-13T12:16:05.000Z,19.34
2023-04-13T12:18:47.071Z,19.28
2023-04-13T12:21:17.443Z,19.14
2023-04-13T12:24:01.371Z,19.00
2023-04-13T12:29:09.229Z,18.80
2023-04-13T12:31:39.840Z,18.73
2023-04-13T12:34:08.530Z,18.68
2023-04-13T12:36:36.984Z,18.48
2023-04-13T12:39:05.054Z,18.32
2023-04-13T12:41:33.631Z,18.21
2023-04-13T12:44:01.532Z,18.23
2023-04-13T12:46:29.790Z,18.30
2023-04-13T12:48:58.201Z,18.43
2023-04-13T12:51:26.787Z,18.52
2023-04-13T12:53:54.635Z,18.65
2023-04-13T12:56:22.542Z,18.82
2023-04-13T12:58:50.494Z,18.97
2023-04-13T13:01:18.306Z,19.02
2023-04-13T13:03:46.531Z,18.96
2023-04-13T13:06:14.487Z,18.84
2023-04-13T13:08:42.310Z,18.63
2023-04-13T13:11:11.230Z,18.54
2023-04-13T13:13:38.978Z,18.40
2023-04-13T13:16:07.173Z,18.19
2023-04-13T13:18:47.066Z,17.95
2023-04-13T13:21:19.633Z,17.68
2023-04-13T13:23:47.458Z,17.44
2023-04-13T13:28:46.342Z,16.98
2023-04-13T13:31:15.674Z,16.76
2023-04-13T13:33:43.623Z,16.59
2023-04-13T13:36:12.743Z,16.52
2023-04-13T13:38:40.679Z,16.38
2023-04-13T13:41:08.439Z,16.20
2023-04-13T13:43:36.255Z,16.13
2023-04-13T13:46:05.955Z,16.11
2023-04-13T13:48:34.102Z,16.10
2023-04-13T13:51:02.330Z,16.19
2023-04-13T13:53:31.811Z,16.26
2023-04-13T13:55:59.644Z,16.22
2023-04-13T13:58:27.400Z,16.18
2023-04-13T14:00:56.077Z,16.09
2023-04-13T14:03:24.132Z,15.97
2023-04-13T14:05:52.088Z,15.85
2023-04-13T14:08:19.904Z,15.78
2023-04-13T14:10:49.963Z,15.73
2023-04-13T14:13:17.972Z,15.73
2023-04-13T14:15:46.307Z,15.69
2023-04-13T14:18:14.201Z,15.63
2023-04-13T14:20:43.460Z,15.57
2023-04-13T14:23:12.208Z,15.56
2023-04-13T14:25:41.428Z,15.52
2023-04-13T14:28:09.611Z,15.42
2023-04-13T14:30:39.467Z,15.34
2023-04-13T14:33:07.810Z,15.32
2023-04-13T14:35:36.089Z,15.29
2023-04-13T14:38:04.043Z,15.23
2023-04-13T14:40:31.956Z,15.20
2023-04-13T14:42:59.714Z,15.17
2023-04-13T14:45:27.713Z,15.15
2023-04-13T14:47:55.796Z,15.13
2023-04-13T14:50:23.793Z,15.10
2023-04-13T14:52:52.555Z,15.04
2023-04-13T14:55:20.546Z,14.99
2023-04-13T14:57:48.494Z,14.97
2023-04-13T15:00:26.601Z,14.97
2023-04-13T15:02:55.047Z,14.97
2023-04-13T15:05:23.864Z,14.94
2023-04-13T15:07:51.783Z,14.89
2023-04-13T15:10:19.696Z,14.82
2023-04-13T15:12:48.345Z,14.74
2023-04-13T15:15:16.531Z,14.65
2023-04-13T15:17:44.457Z,14.59
2023-04-13T15:20:12.408Z,14.53
2023-04-13T15:22:40.526Z,14.46
2023-04-13T15:25:08.807Z,14.42
2023-04-13T15:27:36.610Z,14.41
2023-04-13T15:30:05.117Z,14.37
2023-04-13T15:32:36.856Z,14.32
2023-04-13T15:35:04.988Z,14.25
2023-04-13T15:37:32.932Z,14.17
2023-04-13T15:40:01.677Z,14.10
2023-04-13T15:42:29.590Z,14.02
2023-04-13T15:44:57.379Z,13.96
2023-04-13T15:47:25.208Z,13.95
2023-04-13T15:49:53.059Z,13.99
2023-04-13T15:52:21.331Z,14.06
2023-04-13T15:54:49.191Z,14.11
2023-04-13T15:57:17.133Z,14.12
2023-04-13T15:59:44.897Z,14.11
2023-04-13T16:02:13.452Z,14.11
2023-04-13T16:04:41.667Z,14.12
2023-04-13T16:07:15.842Z,14.15
2023-04-13T16:09:44.588Z,14.20
2023-04-13T16:12:12.556Z,14.24
2023-04-13T16:14:45.165Z,14.24
2023-04-13T16:17:15.172Z,14.20
2023-04-13T16:19:47.192Z,14.16
2023-04-13T16:22:15.868Z,14.14
2023-04-13T16:24:44.379Z,14.12
2023-04-13T16:27:12.257Z,14.11
2023-04-13T16:29:41.856Z,14.11
2023-04-13T16:32:09.765Z,14.12
2023-04-13T16:34:38.028Z,14.13
2023-04-13T16:37:05.990Z,14.16
2023-04-13T16:39:34.117Z,14.12
2023-04-13T16:42:02.356Z,14.04
2023-04-13T16:44:30.510Z,13.96
2023-04-13T16:46:58.773Z,13.91
2023-04-13T16:49:26.810Z,13.89
2023-04-13T16:51:54.689Z,13.90
2023-04-13T16:54:22.664Z,13.91
2023-04-13T16:56:51.961Z,13.97
2023-04-13T16:59:21.624Z,14.50
2023-04-13T17:01:50.587Z,15.00
2023-04-13T17:04:18.539Z,15.12
2023-04-13T17:06:47.667Z,14.74
2023-04-13T17:09:15.656Z,14.27
2023-04-13T17:11:43.782Z,13.91
2023-04-13T17:14:11.882Z,13.68
2023-04-13T17:16:39.803Z,13.84
2023-04-13T17:19:07.965Z,14.07
2023-04-13T17:21:35.749Z,14.23
2023-04-13T17:24:03.881Z,14.33
2023-04-13T17:26:32.600Z,14.45
2023-04-13T17:29:01.857Z,14.45
2023-04-13T17:31:30.140Z,14.38
2023-04-13T17:33:58.811Z,14.32
2023-04-13T17:36:27.639Z,14.57
2023-04-13T17:38:55.591Z,14.64
2023-04-13T17:41:23.723Z,14.80
2023-04-13T17:43:54.195Z,14.74
2023-04-13T17:46:22.671Z,14.76
2023-04-13T17:48:51.024Z,14.72
2023-04-13T17:51:19.010Z,14.63
2023-04-13T17:53:47.237Z,14.33
2023-04-13T17:56:17.616Z,14.12
2023-04-13T17:58:46.392Z,13.96
2023-04-13T18:01:14.936Z,13.98
2023-04-13T18:03:43.553Z,14.18
2023-04-13T18:06:13.180Z,14.10
2023-04-13T18:08:41.857Z,13.99
2023-04-13T18:11:10.298Z,14.05
2023-04-13T18:13:41.610Z,14.11
2023-04-13T18:16:13.421Z,14.13
2023-04-13T18:18:42.468Z,14.14
2023-04-13T18:21:10.553Z,14.20
2023-04-13T18:23:42.091Z,14.10
2023-04-13T18:26:11.493Z,13.91
2023-04-13T18:28:41.169Z,13.90
2023-04-13T18:31:10.329Z,14.08
2023-04-13T18:33:38.324Z,14.34
2023-04-13T18:36:06.798Z,14.60
2023-04-13T18:38:38.338Z,14.48
2023-04-13T18:41:06.911Z,14.31
2023-04-13T18:43:35.426Z,14.43
2023-04-13T18:46:04.137Z,14.80
2023-04-13T18:48:31.981Z,15.11
2023-04-13T18:51:03.246Z,15.18
2023-04-13T18:53:31.635Z,15.11
2023-04-13T18:55:59.484Z,14.50
2023-04-13T18:58:27.899Z,13.82
2023-04-13T19:00:56.328Z,13.36
2023-04-13T19:03:25.408Z,13.25
2023-04-13T19:05:53.758Z,13.26
2023-04-13T19:08:22.236Z,13.20
2023-04-13T19:10:50.063Z,12.99
2023-04-13T19:13:17.966Z,12.81
2023-04-13T19:15:46.228Z,12.64
2023-04-13T19:18:14.478Z,12.53
2023-04-13T19:20:42.635Z,12.43
2023-04-13T19:23:10.831Z,12.33
2023-04-13T19:25:39.044Z,12.22
2023-04-13T19:28:08.093Z,12.14
2023-04-13T19:30:36.801Z,12.08
2023-04-13T19:33:05.554Z,12.04
2023-04-13T19:35:33.683Z,12.03
2023-04-13T19:38:01.684Z,12.05
2023-04-13T19:40:29.968Z,12.06
2023-04-13T19:42:58.112Z,12.06
2023-04-13T19:45:26.130Z,12.03
2023-04-13T19:47:54.582Z,11.99
2023-04-13T19:50:23.068Z,11.94
2023-04-13T19:52:52.957Z,11.99
2023-04-13T19:55:21.225Z,12.08
2023-04-13T19:57:49.346Z,12.01
2023-04-13T20:00:17.624Z,11.92
2023-04-13T20:02:51.967Z,11.81
2023-04-13T20:05:21.286Z,11.71
2023-04-13T20:07:49.779Z,11.63
2023-04-13T20:10:17.767Z,11.56
2023-04-13T20:12:48.339Z,11.53
2023-04-13T20:15:16.316Z,11.58
2023-04-13T20:17:44.219Z,11.68
2023-04-13T20:20:13.529Z,11.73
2023-04-13T20:22:41.427Z,11.71
2023-04-13T20:25:11.181Z,11.68
2023-04-13T20:27:42.216Z,11.67
2023-04-13T20:30:11.075Z,11.65
2023-04-13T20:32:42.671Z,11.67
2023-04-13T20:35:10.623Z,11.65
2023-04-13T20:37:38.986Z,11.57
2023-04-13T20:40:11.742Z,11.51
2023-04-13T20:42:42.300Z,11.51
2023-04-13T20:45:15.066Z,11.55
2023-04-13T20:47:43.616Z,11.48
2023-04-13T20:50:13.501Z,11.39
2023-04-13T20:52:42.160Z,11.37
2023-04-13T20:55:12.096Z,11.48
2023-04-13T20:57:42.407Z,11.64
2023-04-13T21:00:15.588Z,11.61
2023-04-13T21:02:47.009Z,11.49
2023-04-13T21:05:15.238Z,11.45
2023-04-13T21:07:43.497Z,11.41
2023-04-13T21:10:12.281Z,11.38
2023-04-13T21:12:40.084Z,11.35
2023-04-13T21:15:09.429Z,11.34
2023-04-13T21:17:37.487Z,11.31
2023-04-13T21:20:09.195Z,11.34
2023-04-13T21:22:37.305Z,11.65
2023-04-13T21:25:06.893Z,11.73
2023-04-13T21:27:35.079Z,11.66
2023-04-13T21:30:03.433Z,11.57
2023-04-13T21:32:31.547Z,11.56
2023-04-13T21:35:00.610Z,11.55
2023-04-13T21:37:32.161Z,11.56
2023-04-13T21:40:00.316Z,11.52
2023-04-13T21:42:28.371Z,11.46
2023-04-13T21:44:57.223Z,11.41
2023-04-13T21:47:25.191Z,11.36
2023-04-13T21:49:53.172Z,11.29
2023-04-13T21:52:20.942Z,11.19
2023-04-13T21:54:51.437Z,11.12
2023-04-13T21:57:19.590Z,11.06
2023-04-13T21:59:47.336Z,11.07
2023-04-13T22:02:16.049Z,11.21
2023-04-13T22:04:44.063Z,11.35
2023-04-13T22:07:12.275Z,11.45
2023-04-13T22:09:40.272Z,11.53
2023-04-13T22:12:10.402Z,11.61
2023-04-13T22:14:38.171Z,11.69
2023-04-13T22:17:05.996Z,11.79
2023-04-13T22:19:33.800Z,12.05
2023-04-13T22:22:01.584Z,12.24
2023-04-13T22:24:29.362Z,12.45
2023-04-13T22:26:57.245Z,12.48
2023-04-13T22:29:25.007Z,12.40
2023-04-13T22:31:53.045Z,12.30
2023-04-13T22:34:20.907Z,12.19
2023-04-13T22:36:48.713Z,12.15
2023-04-13T22:39:16.529Z,12.07
2023-04-13T22:41:44.336Z,12.06
2023-04-13T22:44:12.124Z,11.90
2023-04-13T22:46:40.014Z,11.72
2023-04-13T22:49:07.826Z,11.54
2023-04-13T22:51:40.384Z,11.41
2023-04-13T22:54:08.168Z,11.32
2023-04-13T22:56:36.062Z,11.28
2023-04-13T22:59:03.894Z,11.28
2023-04-13T23:01:31.805Z,11.29
2023-04-13T23:03:59.804Z,11.32
2023-04-13T23:06:27.882Z,11.35
2023-04-13T23:08:56.846Z,11.35
2023-04-13T23:11:24.766Z,11.30
2023-04-13T23:13:56.928Z,11.23
2023-04-13T23:16:24.717Z,11.18
2023-04-13T23:18:52.555Z,11.14
2023-04-13T23:21:20.632Z,11.10
2023-04-13T23:23:48.532Z,11.08
2023-04-13T23:26:16.535Z,11.06
2023-04-13T23:28:46.772Z,11.05
2023-04-13T23:31:14.581Z,11.09
2023-04-13T23:33:42.376Z,11.16
2023-04-13T23:36:11.147Z,11.21
2023-04-13T23:38:39.032Z,11.26
2023-04-13T23:41:06.751Z,11.29
2023-04-13T23:43:34.553Z,11.29
2023-04-13T23:46:03.125Z,11.26
2023-04-13T23:48:31.510Z,11.18
2023-04-13T23:50:59.325Z,11.05
2023-04-13T23:53:27.108Z,10.96
2023-04-13T23:55:54.859Z,10.88
2023-04-13T23:58:22.592Z,10.79
